Time;durP1;ratioP1;P1;durP2;ratioP2;P2;SDS_P1;SDS_P2;PMS_P1;PMS_P2;Temp;Humidity;BMP_temperature;BMP_pressure;BME280_temperature;BME280_humidity;BME280_pressure;Samples;Min_cycle;Max_cycle;Signal;HPM_P1;HPM_P2
2022/09/03 00:02:11;;;;;;;0.30;0.13;;;12.60;99.90;;;;;;4911152;29;20028;-75
2022/09/03 00:04:39;;;;;;;1.88;0.30;;;12.70;99.90;;;;;;4910485;29;20032;-75
2022/09/03 00:07:19;;;;;;;1.10;0.10;;;12.70;99.90;;;;;;4910612;29;20040;-74
2022/09/03 00:09:57;;;;;;;0.32;0.10;;;12.70;99.90;;;;;;4902554;29;20123;-76
2022/09/03 00:12:33;;;;;;;1.95;0.10;;;12.60;99.90;;;;;;4913217;29;20052;-75
2022/09/03 00:15:08;;;;;;;2.45;0.15;;;12.70;99.90;;;;;;4894144;29;20051;-75
2022/09/03 00:17:51;;;;;;;0.40;0.10;;;12.70;99.90;;;;;;4911345;29;20043;-76
2022/09/03 00:20:27;;;;;;;0.10;0.08;;;12.70;99.90;;;;;;4921513;29;20036;-74
2022/09/03 00:23:00;;;;;;;0.20;0.08;;;12.70;99.90;;;;;;4909696;29;20036;-74
2022/09/03 00:25:53;;;;;;;0.45;0.00;;;12.70;99.90;;;;;;4908191;29;20463;-74
2022/09/03 00:28:29;;;;;;;1.20;0.10;;;12.70;99.90;;;;;;4898768;29;20089;-74
2022/09/03 00:31:06;;;;;;;;;;;12.70;99.90;;;;;;4913568;29;20476;-75
2022/09/03 00:33:33;;;;;;;;;;;12.70;99.90;;;;;;4909762;29;20291;-74
2022/09/03 00:36:23;;;;;;;0.68;0.17;;;12.70;99.90;;;;;;4909246;29;19918;-74
2022/09/03 00:38:51;;;;;;;1.23;0.10;;;12.70;99.90;;;;;;4894061;29;20044;-74
2022/09/03 00:41:32;;;;;;;0.30;0.00;;;12.70;99.90;;;;;;4904211;29;20036;-75
2022/09/03 00:44:11;;;;;;;0.30;0.10;;;12.80;99.90;;;;;;4903858;29;20123;-75
2022/09/03 00:46:55;;;;;;;0.10;0.10;;;12.90;99.90;;;;;;4914240;29;20027;-74
2022/09/03 00:49:59;;;;;;;2.20;0.10;;;13.00;99.90;;;;;;4932062;29;20031;-73
2022/09/03 00:52:40;;;;;;;0.38;0.10;;;13.20;99.90;;;;;;4906719;29;20424;-74
2022/09/03 00:55:42;;;;;;;1.52;0.28;;;13.40;99.90;;;;;;4908420;29;20047;-74
2022/09/03 00:58:28;;;;;;;0.98;0.10;;;13.60;99.90;;;;;;4900323;29;20036;-74
2022/09/03 01:00:56;;;;;;;0.25;0.00;;;13.70;99.90;;;;;;4900146;29;20506;-75
2022/09/03 01:03:26;;;;;;;0.10;0.00;;;13.70;99.90;;;;;;4909910;29;20119;-74
2022/09/03 01:06:22;;;;;;;0.47;0.00;;;13.80;99.90;;;;;;4910746;29;20107;-75
2022/09/03 01:09:11;;;;;;;1.77;0.10;;;13.90;99.90;;;;;;4900152;29;20363;-74
2022/09/03 01:11:40;;;;;;;0.10;0.00;;;14.00;99.90;;;;;;4907285;29;20511;-74
2022/09/03 01:14:30;;;;;;;0.10;0.10;;;13.80;99.90;;;;;;4897361;29;20151;-74
2022/09/03 01:17:32;;;;;;;1.02;0.10;;;13.80;99.90;;;;;;4906786;29;20384;-74
2022/09/03 01:20:21;;;;;;;0.00;0.00;;;13.70;99.90;;;;;;4896265;29;20523;-74
2022/09/03 01:23:23;;;;;;;0.35;0.10;;;13.70;99.90;;;;;;4908839;29;20072;-74
2022/09/03 01:26:35;;;;;;;3.83;0.10;;;13.80;99.90;;;;;;4910067;29;20035;-74
2022/09/03 01:29:34;;;;;;;0.50;0.40;;;13.80;99.90;;;;;;4909071;29;20032;-74
2022/09/03 01:32:28;;;;;;;0.60;0.20;;;13.90;99.90;;;;;;4898003;29;20036;-73
2022/09/03 01:35:21;;;;;;;0.38;0.20;;;14.10;99.90;;;;;;4907458;29;20419;-74
2022/09/03 01:38:07;;;;;;;0.30;0.10;;;14.40;99.90;;;;;;4916720;29;20072;-73
2022/09/03 01:40:53;;;;;;;0.77;0.30;;;14.80;99.90;;;;;;4914519;29;20028;-74
2022/09/03 01:43:35;;;;;;;2.30;0.30;;;15.00;99.90;;;;;;4916247;29;20040;-75
2022/09/03 01:46:12;;;;;;;1.20;0.22;;;14.90;99.90;;;;;;4909183;29;20119;-74
2022/09/03 01:49:01;;;;;;;0.80;0.20;;;15.00;99.90;;;;;;4913279;29;20036;-75
2022/09/03 01:51:31;;;;;;;3.13;0.30;;;15.00;99.90;;;;;;4913637;29;20046;-75
2022/09/03 01:54:07;;;;;;;0.38;0.10;;;15.00;99.90;;;;;;4915965;29;20434;-74
2022/09/03 01:56:53;;;;;;;1.33;0.10;;;14.90;99.90;;;;;;4916862;29;20048;-75
2022/09/03 01:59:29;;;;;;;0.77;0.20;;;14.70;99.90;;;;;;4913610;29;20119;-74
2022/09/03 02:02:20;;;;;;;3.13;0.30;;;14.60;99.90;;;;;;4903141;29;22658;-74
2022/09/03 02:05:07;;;;;;;0.73;0.28;;;14.60;99.90;;;;;;4881162;29;20147;-74
2022/09/03 02:07:47;;;;;;;1.63;0.47;;;14.50;99.90;;;;;;4915831;29;20032;-76
2022/09/03 02:10:21;;;;;;;1.35;0.20;;;14.40;99.90;;;;;;4911886;29;20223;-74
2022/09/03 02:12:55;;;;;;;0.85;0.75;;;14.30;99.90;;;;;;4908940;29;20444;-74
2022/09/03 02:15:25;;;;;;;1.10;0.30;;;14.40;99.90;;;;;;4911667;29;20375;-73
2022/09/03 02:17:56;;;;;;;0.85;0.45;;;14.40;99.90;;;;;;4906726;29;20048;-73
2022/09/03 02:20:27;;;;;;;1.40;0.40;;;14.50;99.90;;;;;;4911978;29;20477;-74
2022/09/03 02:22:57;;;;;;;2.20;0.30;;;14.60;99.90;;;;;;4913568;29;20059;-73
2022/09/03 02:25:30;;;;;;;4.10;0.45;;;14.80;99.90;;;;;;4912698;29;20035;-74
2022/09/03 02:27:59;;;;;;;4.13;0.60;;;15.10;99.90;;;;;;4914426;29;20055;-73
2022/09/03 02:30:26;;;;;;;2.38;1.20;;;15.30;99.90;;;;;;4911886;29;20028;-74
2022/09/03 02:32:53;;;;;;;2.85;1.00;;;15.70;99.90;;;;;;4907564;29;20025;-75
2022/09/03 02:35:21;;;;;;;2.00;0.50;;;15.90;99.90;;;;;;4913418;29;20039;-72
2022/09/03 02:37:49;;;;;;;4.57;0.88;;;16.10;99.90;;;;;;4913113;29;20084;-74
2022/09/03 02:40:17;;;;;;;2.03;0.35;;;16.10;99.90;;;;;;4913207;29;20039;-75
2022/09/03 02:42:46;;;;;;;6.78;0.50;;;15.90;99.90;;;;;;4909710;29;20123;-75
2022/09/03 02:45:28;;;;;;;3.95;0.80;;;15.50;99.90;;;;;;4911040;29;20054;-75
2022/09/03 02:47:59;;;;;;;3.63;0.68;;;15.30;99.90;;;;;;4906875;29;20051;-76
2022/09/03 02:50:26;;;;;;;2.72;1.40;;;15.10;99.90;;;;;;4905638;29;20455;-76
2022/09/03 02:52:54;;;;;;;4.78;1.00;;;15.00;99.90;;;;;;4909064;29;20099;-75
2022/09/03 02:55:22;;;;;;;2.38;0.75;;;15.00;99.90;;;;;;4910748;29;20036;-74
2022/09/03 02:57:49;;;;;;;1.23;0.60;;;14.90;99.90;;;;;;4903894;29;20095;-73
2022/09/03 03:00:18;;;;;;;3.72;0.28;;;15.00;99.90;;;;;;4904993;29;20024;-74
2022/09/03 03:02:45;;;;;;;2.50;0.40;;;15.10;99.90;;;;;;4904071;29;20054;-74
2022/09/03 03:05:21;;;;;;;4.10;0.93;;;15.20;99.90;;;;;;4905544;29;20488;-78
2022/09/03 03:07:48;;;;;;;4.93;0.50;;;15.30;99.90;;;;;;4908507;29;20111;-77
2022/09/03 03:10:16;;;;;;;1.88;1.13;;;15.60;99.90;;;;;;4905125;29;20044;-75
2022/09/03 03:12:44;;;;;;;3.92;0.50;;;15.80;99.90;;;;;;4911820;29;20036;-78
2022/09/03 03:15:11;;;;;;;4.68;0.65;;;16.00;99.90;;;;;;4910907;29;20036;-74
2022/09/03 03:17:39;;;;;;;5.00;0.60;;;16.20;99.90;;;;;;4912776;29;20044;-74
2022/09/03 03:20:07;;;;;;;6.57;1.40;;;16.30;99.90;;;;;;4909745;29;20111;-74
2022/09/03 03:22:34;;;;;;;6.25;0.93;;;16.30;99.90;;;;;;4906336;29;20054;-74
2022/09/03 03:25:02;;;;;;;3.38;1.05;;;16.20;99.90;;;;;;4911296;29;20024;-76
2022/09/03 03:27:29;;;;;;;5.18;1.23;;;16.20;99.90;;;;;;4909958;29;20391;-74
2022/09/03 03:29:56;;;;;;;1.65;0.50;;;16.00;99.90;;;;;;4905879;29;20419;-74
2022/09/03 03:32:24;;;;;;;4.07;0.80;;;15.70;99.90;;;;;;4910279;29;20559;-75
2022/09/03 03:34:51;;;;;;;3.60;0.43;;;15.50;99.90;;;;;;4907788;29;20031;-74
2022/09/03 03:37:19;;;;;;;2.00;0.57;;;15.40;99.90;;;;;;4905736;29;20045;-76
2022/09/03 03:39:46;;;;;;;6.53;0.50;;;15.30;99.90;;;;;;4889119;29;20063;-74
2022/09/03 03:42:14;;;;;;;5.28;0.50;;;15.20;99.90;;;;;;4912598;29;20114;-73
2022/09/03 03:44:42;;;;;;;6.30;0.80;;;15.00;99.90;;;;;;4910177;29;20031;-74
2022/09/03 03:47:11;;;;;;;5.78;0.80;;;15.00;99.90;;;;;;4912110;29;20039;-73
2022/09/03 03:49:38;;;;;;;1.63;0.35;;;15.10;99.90;;;;;;4909553;29;20028;-74
2022/09/03 03:52:05;;;;;;;5.95;0.70;;;15.10;99.90;;;;;;4907060;29;20526;-75
2022/09/03 03:54:33;;;;;;;4.07;0.73;;;15.10;99.90;;;;;;4886190;29;20036;-74
2022/09/03 03:57:01;;;;;;;9.07;1.33;;;15.10;99.90;;;;;;4905283;29;20091;-75
2022/09/03 03:59:28;;;;;;;2.85;0.88;;;15.10;99.90;;;;;;4909144;29;20424;-74
2022/09/03 04:01:55;;;;;;;7.60;0.73;;;15.20;99.90;;;;;;4910964;29;20529;-74
2022/09/03 04:04:23;;;;;;;5.07;0.70;;;15.30;99.90;;;;;;4910555;29;20043;-74
2022/09/03 04:06:50;;;;;;;5.20;0.73;;;15.40;99.90;;;;;;4909893;29;20036;-74
2022/09/03 04:09:18;;;;;;;7.20;1.10;;;15.50;99.90;;;;;;4907697;29;20057;-82
2022/09/03 04:11:45;;;;;;;7.60;1.65;;;15.40;99.90;;;;;;4910542;29;20036;-79
2022/09/03 04:14:12;;;;;;;6.57;1.23;;;15.30;99.90;;;;;;4914057;29;20115;-78
2022/09/03 04:16:40;;;;;;;5.25;1.25;;;15.30;99.90;;;;;;4909342;29;20542;-78
2022/09/03 04:19:07;;;;;;;5.43;0.80;;;15.20;99.90;;;;;;4912020;29;20047;-76
2022/09/03 04:21:35;;;;;;;10.65;1.27;;;15.30;99.90;;;;;;4908997;29;20032;-77
2022/09/03 04:24:05;;;;;;;8.65;0.70;;;15.30;99.90;;;;;;4897119;29;20487;-75
2022/09/03 04:26:33;;;;;;;7.10;2.03;;;15.40;99.90;;;;;;4907246;29;20032;-78
2022/09/03 04:29:04;;;;;;;2.88;0.75;;;15.40;99.90;;;;;;4912514;29;20565;-77
2022/09/03 04:31:32;;;;;;;6.25;1.15;;;15.40;99.90;;;;;;4910523;29;20033;-76
2022/09/03 04:34:00;;;;;;;11.05;1.77;;;15.50;99.90;;;;;;4904746;29;20552;-78
2022/09/03 04:36:29;;;;;;;5.15;0.65;;;15.50;99.90;;;;;;4903679;29;20059;-77
2022/09/03 04:39:00;;;;;;;5.72;1.10;;;15.60;99.90;;;;;;4906967;29;20115;-78
2022/09/03 04:41:30;;;;;;;7.18;1.00;;;15.70;99.90;;;;;;4905015;29;20020;-75
2022/09/03 04:43:59;;;;;;;8.10;1.05;;;15.60;99.90;;;;;;4904814;29;20036;-78
2022/09/03 04:46:32;;;;;;;3.17;0.80;;;15.50;99.90;;;;;;4905803;29;20028;-79
2022/09/03 04:48:59;;;;;;;4.22;0.85;;;15.50;99.90;;;;;;4903145;29;20123;-77
2022/09/03 04:51:28;;;;;;;9.00;1.30;;;15.50;99.90;;;;;;4901040;29;20122;-77
2022/09/03 04:54:00;;;;;;;7.80;1.27;;;15.60;99.90;;;;;;4900464;29;20028;-79
2022/09/03 04:56:33;;;;;;;5.97;0.55;;;15.60;99.90;;;;;;4910958;29;20036;-79
2022/09/03 04:59:04;;;;;;;7.38;1.77;;;15.90;99.90;;;;;;4904431;29;20036;-76
2022/09/03 05:01:34;;;;;;;4.28;0.95;;;16.00;99.90;;;;;;4904578;29;20562;-77
2022/09/03 05:04:01;;;;;;;5.10;1.90;;;16.10;99.90;;;;;;4903848;29;20143;-79
2022/09/03 05:06:30;;;;;;;8.25;1.20;;;16.20;99.90;;;;;;4901999;29;20127;-77
2022/09/03 05:08:58;;;;;;;5.85;1.60;;;16.30;99.90;;;;;;4912675;29;20039;-79
2022/09/03 05:11:27;;;;;;;6.68;1.38;;;16.20;99.90;;;;;;4904393;29;20376;-79
2022/09/03 05:13:57;;;;;;;6.53;1.58;;;16.10;99.90;;;;;;4907421;29;20028;-79
2022/09/03 05:16:27;;;;;;;5.80;1.23;;;16.10;99.90;;;;;;4913440;29;20095;-77
2022/09/03 05:18:58;;;;;;;5.47;0.65;;;16.00;99.90;;;;;;4920004;29;20601;-77
2022/09/03 05:21:27;;;;;;;7.50;0.80;;;15.90;99.90;;;;;;4911363;29;20501;-78
2022/09/03 05:23:54;;;;;;;10.27;0.95;;;15.90;99.90;;;;;;4911321;29;20021;-76
2022/09/03 05:26:24;;;;;;;5.13;1.00;;;16.00;99.90;;;;;;4910767;29;20050;-76
2022/09/03 05:29:00;;;;;;;6.57;1.80;;;16.00;99.90;;;;;;4903056;29;20158;-77
2022/09/03 05:31:30;;;;;;;;;;;15.90;99.90;;;;;;4899273;29;20035;-77
2022/09/03 05:34:00;;;;;;;5.07;2.50;;;15.60;99.90;;;;;;4898958;29;19945;-78
2022/09/03 05:36:31;;;;;;;7.53;2.42;;;15.30;99.90;;;;;;4912871;29;20039;-76
2022/09/03 05:38:59;;;;;;;8.73;1.52;;;14.90;99.90;;;;;;4913196;29;20036;-76
2022/09/03 05:41:27;;;;;;;6.38;1.10;;;14.60;99.90;;;;;;4913818;29;20032;-77
2022/09/03 05:43:57;;;;;;;4.43;1.45;;;14.30;99.90;;;;;;4902698;29;20480;-77
2022/09/03 05:46:31;;;;;;;5.28;0.82;;;14.10;99.90;;;;;;4910583;29;20432;-78
2022/09/03 05:49:04;;;;;;;7.72;1.10;;;13.90;99.90;;;;;;4915610;29;20039;-78
2022/09/03 05:51:33;;;;;;;8.32;1.02;;;13.70;99.90;;;;;;4901974;29;20021;-79
2022/09/03 05:54:01;;;;;;;6.78;1.85;;;13.50;99.90;;;;;;4913779;29;20502;-78
2022/09/03 05:56:30;;;;;;;6.75;1.33;;;13.40;99.90;;;;;;4914839;29;20060;-79
2022/09/03 05:59:00;;;;;;;5.90;0.60;;;13.30;99.90;;;;;;4916112;29;20047;-78
2022/09/03 06:01:30;;;;;;;8.32;1.30;;;13.20;99.90;;;;;;4913944;29;20029;-79
2022/09/03 06:03:59;;;;;;;6.35;1.20;;;13.20;99.90;;;;;;4905551;29;20028;-78
2022/09/03 06:06:30;;;;;;;2.95;0.57;;;13.20;99.90;;;;;;4906133;29;20032;-80
2022/09/03 06:09:01;;;;;;;4.35;0.95;;;13.20;99.90;;;;;;4913963;29;20051;-83
2022/09/03 06:11:29;;;;;;;6.20;1.10;;;13.20;99.90;;;;;;4909527;29;20060;-75
2022/09/03 06:14:01;;;;;;;4.07;0.85;;;13.30;99.90;;;;;;4908821;29;20436;-80
2022/09/03 06:16:30;;;;;;;5.50;1.27;;;13.40;99.90;;;;;;4910778;29;20044;-83
2022/09/03 06:18:58;;;;;;;4.70;0.57;;;13.40;99.90;;;;;;4910893;29;20051;-75
2022/09/03 06:21:25;;;;;;;12.25;2.50;;;13.50;99.90;;;;;;4909459;29;20103;-81
2022/09/03 06:23:58;;;;;;;6.32;0.90;;;13.50;99.90;;;;;;4906907;29;20075;-73
2022/09/03 06:26:27;;;;;;;4.78;1.65;;;13.60;99.90;;;;;;4907341;29;20032;-77
2022/09/03 06:28:55;;;;;;;3.00;0.73;;;13.60;99.90;;;;;;4935578;29;20510;-78
2022/09/03 06:31:23;;;;;;;5.47;1.45;;;13.60;99.90;;;;;;4916631;29;20487;-79
2022/09/03 06:33:51;;;;;;;4.32;1.38;;;13.50;99.90;;;;;;4907340;29;20047;-74
2022/09/03 06:36:21;;;;;;;4.80;1.52;;;13.50;99.90;;;;;;4912082;29;20388;-83
2022/09/03 06:38:55;;;;;;;4.78;0.95;;;13.50;99.90;;;;;;4915373;29;20040;-80
2022/09/03 06:41:25;;;;;;;8.13;2.83;;;13.40;99.90;;;;;;4912181;29;20028;-85
2022/09/03 06:43:56;;;;;;;8.68;3.92;;;13.40;99.90;;;;;;4921294;29;20086;-74
2022/09/03 06:46:24;;;;;;;4.32;0.60;;;13.30;99.90;;;;;;4918421;29;20028;-78
2022/09/03 06:48:52;;;;;;;3.60;1.10;;;13.30;99.90;;;;;;4909116;29;20036;-84
2022/09/03 06:51:22;;;;;;;1.67;0.43;;;13.20;99.90;;;;;;4911943;29;20036;-81
2022/09/03 06:53:52;;;;;;;3.60;0.50;;;13.20;99.90;;;;;;4913358;29;20028;-83
2022/09/03 06:56:25;;;;;;;2.92;0.68;;;13.20;99.90;;;;;;4907597;29;20040;-81
2022/09/03 06:58:54;;;;;;;6.65;0.90;;;13.20;99.90;;;;;;4902242;29;20038;-76
2022/09/03 07:01:27;;;;;;;1.65;0.57;;;13.20;99.90;;;;;;4896872;29;20040;-80
2022/09/03 07:03:59;;;;;;;1.48;0.30;;;13.20;99.90;;;;;;4914598;29;20024;-80
2022/09/03 07:06:29;;;;;;;7.13;0.80;;;13.10;99.90;;;;;;4909306;29;20500;-82
2022/09/03 07:08:58;;;;;;;2.97;0.70;;;13.10;99.90;;;;;;4917393;29;20055;-77
2022/09/03 07:11:29;;;;;;;6.88;3.00;;;13.00;99.90;;;;;;4912524;29;20064;-78
2022/09/03 07:13:58;;;;;;;5.72;2.17;;;13.00;99.90;;;;;;4913004;29;20027;-83
2022/09/03 07:16:27;;;;;;;2.35;0.50;;;13.00;99.90;;;;;;4910782;29;20032;-84
2022/09/03 07:18:55;;;;;;;3.13;0.40;;;13.00;99.90;;;;;;4909124;29;20036;-77
2022/09/03 07:21:28;;;;;;;1.65;0.35;;;13.00;99.90;;;;;;4912719;29;20059;-83
2022/09/03 07:23:56;;;;;;;2.60;0.40;;;13.00;99.90;;;;;;4913999;29;20036;-75
2022/09/03 07:26:30;;;;;;;3.83;0.30;;;13.00;99.90;;;;;;4911515;29;20043;-84
2022/09/03 07:28:59;;;;;;;7.55;0.60;;;13.00;99.90;;;;;;4913565;29;20649;-80
2022/09/03 07:31:36;;;;;;;1.25;0.43;;;13.00;99.90;;;;;;4909865;29;20032;-82
2022/09/03 07:34:06;;;;;;;5.40;0.40;;;12.90;99.90;;;;;;4914763;29;20036;-85
2022/09/03 07:36:44;;;;;;;1.17;0.32;;;12.80;99.90;;;;;;4914611;29;20048;-79
2022/09/03 07:39:14;;;;;;;9.63;1.27;;;12.80;99.90;;;;;;4910000;29;20467;-82
2022/09/03 07:41:45;;;;;;;5.18;0.43;;;12.80;99.90;;;;;;4910923;29;20035;-80
2022/09/03 07:44:20;;;;;;;3.88;0.38;;;12.70;99.90;;;;;;4914591;29;20032;-81
2022/09/03 07:46:49;;;;;;;5.05;0.60;;;12.70;99.90;;;;;;4912297;29;20031;-81
2022/09/03 07:49:16;;;;;;;2.42;0.52;;;12.70;99.90;;;;;;4912982;29;20036;-82
2022/09/03 07:51:45;;;;;;;2.25;0.32;;;12.60;99.90;;;;;;4911763;29;20032;-75
2022/09/03 07:54:12;;;;;;;3.88;0.98;;;12.50;99.90;;;;;;4902344;29;20506;-77
2022/09/03 07:56:40;;;;;;;2.42;0.65;;;12.40;99.90;;;;;;4910833;29;20039;-79
2022/09/03 07:59:08;;;;;;;4.72;0.40;;;12.40;99.90;;;;;;4904841;29;20032;-74
2022/09/03 08:01:37;;;;;;;4.68;1.15;;;12.20;99.90;;;;;;4908025;29;20032;-79
2022/09/03 08:04:05;;;;;;;3.50;0.35;;;12.20;99.90;;;;;;4914478;29;20032;-82
2022/09/03 08:06:33;;;;;;;2.33;0.28;;;12.10;99.90;;;;;;4912030;29;20088;-78
2022/09/03 08:09:06;;;;;;;4.47;0.40;;;12.00;99.90;;;;;;4905024;29;20059;-82
2022/09/03 08:11:37;;;;;;;2.65;0.40;;;12.00;99.90;;;;;;4909347;29;20459;-78
2022/09/03 08:14:10;;;;;;;2.08;0.28;;;11.90;99.90;;;;;;4893613;29;20029;-80
2022/09/03 08:16:43;;;;;;;3.50;0.43;;;11.90;99.90;;;;;;4905587;29;20035;-75
2022/09/03 08:19:11;;;;;;;6.00;0.70;;;11.80;99.90;;;;;;4919414;29;20622;-77
2022/09/03 08:21:40;;;;;;;1.10;0.30;;;11.80;99.90;;;;;;4908593;29;20092;-75
2022/09/03 08:24:09;;;;;;;1.00;0.68;;;11.80;99.90;;;;;;4914210;29;20046;-79
2022/09/03 08:26:40;;;;;;;4.22;0.50;;;11.70;99.90;;;;;;4919058;29;20040;-82
2022/09/03 08:29:07;;;;;;;6.05;0.55;;;11.70;99.90;;;;;;4911342;29;20032;-79
2022/09/03 08:31:36;;;;;;;2.28;0.55;;;11.70;99.90;;;;;;4911595;29;20147;-78
2022/09/03 08:34:06;;;;;;;3.42;0.47;;;11.70;99.90;;;;;;4913124;29;20103;-79
2022/09/03 08:36:36;;;;;;;1.88;0.40;;;11.60;99.90;;;;;;4910458;29;20028;-80
2022/09/03 08:39:08;;;;;;;1.38;0.40;;;11.60;99.90;;;;;;4911491;29;20076;-82
2022/09/03 08:41:52;;;;;;;4.30;0.30;;;11.60;99.90;;;;;;4907911;29;20597;-81
2022/09/03 08:44:35;;;;;;;4.05;0.65;;;11.50;99.90;;;;;;4931279;29;20057;-76
2022/09/03 08:47:11;;;;;;;1.10;0.30;;;11.50;99.90;;;;;;4912688;29;20036;-81
2022/09/03 08:49:54;;;;;;;2.40;0.40;;;11.40;99.90;;;;;;4910094;29;20047;-72
2022/09/03 08:52:31;;;;;;;2.95;0.73;;;11.40;99.90;;;;;;4911815;29;20051;-80
2022/09/03 08:55:13;;;;;;;1.85;0.70;;;11.30;99.90;;;;;;4912133;29;20043;-81
2022/09/03 08:57:49;;;;;;;3.33;0.40;;;11.30;99.90;;;;;;4882573;29;20044;-76
2022/09/03 09:00:18;;;;;;;6.63;1.38;;;11.30;99.90;;;;;;4913478;29;20032;-75
2022/09/03 09:02:57;;;;;;;3.78;0.43;;;11.30;99.90;;;;;;4910199;29;20127;-80
2022/09/03 09:05:45;;;;;;;1.90;0.40;;;11.30;99.90;;;;;;4904670;29;20043;-73
2022/09/03 09:08:23;;;;;;;4.72;1.02;;;11.30;99.90;;;;;;4903216;29;20077;-74
2022/09/03 09:11:10;;;;;;;4.28;0.40;;;11.30;99.90;;;;;;4898729;29;20464;-81
2022/09/03 09:13:55;;;;;;;1.80;0.70;;;11.30;99.90;;;;;;4904333;29;20104;-74
2022/09/03 09:16:51;;;;;;;3.80;0.50;;;11.30;99.90;;;;;;4912491;29;20902;-80
2022/09/03 09:19:25;;;;;;;5.03;0.60;;;11.30;99.90;;;;;;4903546;29;20063;-75
2022/09/03 09:21:57;;;;;;;4.03;0.75;;;11.30;99.90;;;;;;4911956;29;20171;-81
2022/09/03 09:24:27;;;;;;;6.20;0.60;;;11.30;99.90;;;;;;4896984;29;20039;-81
2022/09/03 09:27:03;;;;;;;5.72;0.85;;;11.30;99.90;;;;;;4907277;29;20033;-78
2022/09/03 09:29:35;;;;;;;;;;;11.30;99.90;;;;;;4907168;29;20044;-78
2022/09/03 09:32:06;;;;;;;2.92;1.00;;;11.20;99.90;;;;;;4910646;29;19915;-77
2022/09/03 09:34:38;;;;;;;5.47;0.73;;;11.20;99.90;;;;;;4913948;29;20028;-80
2022/09/03 09:37:10;;;;;;;6.45;0.80;;;11.20;99.90;;;;;;4909284;29;20123;-79
2022/09/03 09:39:38;;;;;;;4.95;0.47;;;11.20;99.90;;;;;;4910488;29;20094;-75
2022/09/03 09:42:11;;;;;;;2.30;0.57;;;11.20;99.90;;;;;;4908078;29;20453;-80
2022/09/03 09:44:42;;;;;;;2.53;0.80;;;11.20;99.90;;;;;;4908020;29;20141;-74
2022/09/03 09:47:21;;;;;;;3.40;0.50;;;11.10;99.90;;;;;;4909362;29;20032;-76
2022/09/03 09:49:58;;;;;;;2.88;0.95;;;11.10;99.90;;;;;;4897411;29;20548;-74
2022/09/03 09:52:29;;;;;;;1.90;1.08;;;11.10;99.90;;;;;;4899488;29;20055;-74
2022/09/03 09:55:17;;;;;;;4.65;1.02;;;11.00;99.90;;;;;;4913076;29;20087;-75
2022/09/03 09:57:44;;;;;;;2.58;1.17;;;11.00;99.90;;;;;;4906431;29;20054;-79
2022/09/03 10:00:17;;;;;;;5.55;1.65;;;11.00;99.90;;;;;;4895648;29;20028;-72
2022/09/03 10:02:56;;;;;;;3.83;1.40;;;11.00;99.90;;;;;;4915296;29;20028;-78
2022/09/03 10:05:39;;;;;;;1.13;0.50;;;11.00;99.90;;;;;;4901882;29;20028;-74
2022/09/03 10:08:21;;;;;;;4.47;1.23;;;11.10;99.90;;;;;;4916605;29;20107;-86
2022/09/03 10:10:51;;;;;;;5.03;1.60;;;11.10;99.90;;;;;;4913511;29;20111;-80
2022/09/03 10:13:42;;;;;;;2.90;0.60;;;11.10;99.90;;;;;;4914738;29;21906;-80
2022/09/03 10:16:33;;;;;;;4.50;0.40;;;11.20;99.90;;;;;;4910171;29;20120;-85
2022/09/03 10:19:23;;;;;;;1.00;0.30;;;11.20;99.90;;;;;;4907135;29;20059;-88
2022/09/03 10:22:29;;;;;;;2.42;0.63;;;11.20;99.90;;;;;;4912531;29;20099;-84
2022/09/03 10:25:02;;;;;;;4.75;2.85;;;11.20;99.90;;;;;;4823412;29;20081;-87
2022/09/03 10:27:30;;;;;;;8.60;6.93;;;11.20;99.90;;;;;;4820489;29;20038;-83
2022/09/03 10:29:59;;;;;;;3.40;2.75;;;11.10;99.90;;;;;;4866593;29;20119;-83
2022/09/03 10:33:03;;;;;;;3.53;2.42;;;11.10;99.90;;;;;;4909917;29;20036;-84
2022/09/03 10:35:34;;;;;;;7.63;1.80;;;11.20;99.90;;;;;;4907891;29;20122;-82
2022/09/03 10:38:17;;;;;;;6.97;1.17;;;11.30;99.90;;;;;;4901081;29;20559;-78
2022/09/03 10:41:04;;;;;;;5.65;1.05;;;11.30;99.90;;;;;;4902215;29;20032;-84
2022/09/03 10:44:01;;;;;;;4.45;0.90;;;11.40;99.90;;;;;;4897310;29;20046;-82
2022/09/03 10:46:43;;;;;;;6.53;0.93;;;11.40;99.90;;;;;;4913948;29;20384;-78
2022/09/03 10:49:20;;;;;;;3.75;0.82;;;11.50;99.90;;;;;;4909106;29;21517;-83
2022/09/03 10:52:16;;;;;;;3.25;1.70;;;11.60;99.90;;;;;;4905052;29;20032;-84
2022/09/03 10:54:56;;;;;;;2.93;0.93;;;11.60;99.90;;;;;;4900797;29;20020;-77
2022/09/03 10:57:39;;;;;;;3.17;0.60;;;11.50;99.90;;;;;;4902068;29;20036;-84
2022/09/03 11:00:11;;;;;;;1.60;0.57;;;11.50;99.90;;;;;;4913304;29;20040;-84
2022/09/03 11:03:15;;;;;;;3.63;0.50;;;11.50;99.90;;;;;;4913759;29;20040;-86
2022/09/03 11:06:24;;;;;;;4.05;0.30;;;11.50;99.90;;;;;;4901716;29;20035;-84
2022/09/03 11:09:39;;;;;;;5.65;0.73;;;11.50;99.90;;;;;;4913378;29;20510;-76
2022/09/03 11:12:36;;;;;;;3.35;0.47;;;11.50;99.90;;;;;;4865823;29;20048;-79
2022/09/03 11:15:06;;;;;;;4.40;0.90;;;11.50;99.90;;;;;;4909189;29;20484;-79
2022/09/03 11:17:58;;;;;;;2.10;1.00;;;11.50;99.90;;;;;;4903684;29;20044;-84
2022/09/03 11:20:27;;;;;;;2.38;0.88;;;11.50;99.90;;;;;;4907837;29;20036;-83
2022/09/03 11:23:02;;;;;;;4.45;0.88;;;11.50;99.90;;;;;;4904847;29;20064;-85
2022/09/03 11:25:41;;;;;;;2.35;0.65;;;11.40;99.90;;;;;;4899913;29;20403;-84
2022/09/03 11:28:21;;;;;;;5.15;1.33;;;11.40;99.90;;;;;;4913740;29;20048;-83
2022/09/03 11:31:17;;;;;;;3.15;0.50;;;11.40;99.90;;;;;;4908937;29;20037;-84
2022/09/03 11:33:50;;;;;;;2.22;0.40;;;11.40;99.90;;;;;;4912104;29;20470;-88
2022/09/03 11:36:31;;;;;;;3.30;0.98;;;11.30;99.90;;;;;;4902437;29;20035;-87
2022/09/03 11:38:59;;;;;;;0.98;0.60;;;11.20;99.90;;;;;;4911294;29;20132;-78
2022/09/03 11:41:34;;;;;;;2.90;0.98;;;11.20;99.90;;;;;;4907815;29;20039;-85
2022/09/03 11:44:22;;;;;;;2.40;0.40;;;11.10;99.90;;;;;;4913312;29;20035;-84
2022/09/03 11:46:59;;;;;;;4.05;0.47;;;11.00;99.90;;;;;;4904077;29;20095;-81
2022/09/03 11:49:34;;;;;;;0.77;0.20;;;11.00;99.90;;;;;;4915791;29;20032;-82
2022/09/03 11:52:08;;;;;;;4.35;0.60;;;11.00;99.90;;;;;;4895888;29;20036;-86
2022/09/03 11:54:47;;;;;;;2.30;0.40;;;11.10;99.90;;;;;;4903784;29;20046;-76
2022/09/03 11:57:27;;;;;;;0.50;0.30;;;11.10;99.90;;;;;;4912954;29;20036;-81
2022/09/03 12:00:06;;;;;;;2.13;0.60;;;11.10;99.90;;;;;;4912011;29;20044;-82
2022/09/03 12:02:37;;;;;;;2.63;0.85;;;11.10;99.90;;;;;;4913124;29;20143;-85
2022/09/03 12:05:08;;;;;;;5.22;0.68;;;11.10;99.90;;;;;;4906300;29;20504;-83
2022/09/03 12:07:56;;;;;;;5.88;0.38;;;11.10;99.90;;;;;;4906935;29;20024;-83
2022/09/03 12:10:35;;;;;;;1.35;0.20;;;11.00;99.90;;;;;;4900108;29;20203;-82
2022/09/03 12:13:17;;;;;;;3.05;0.40;;;10.90;99.90;;;;;;4914076;29;20535;-84
2022/09/03 12:16:31;;;;;;;1.50;0.40;;;10.80;99.90;;;;;;4907617;29;20052;-78
2022/09/03 12:19:12;;;;;;;4.55;0.60;;;10.80;99.90;;;;;;4850058;29;20106;-76
2022/09/03 12:21:40;;;;;;;2.03;0.98;;;10.70;99.90;;;;;;4901495;29;20242;-82
2022/09/03 12:24:12;;;;;;;2.63;0.68;;;10.70;99.90;;;;;;4925899;29;20191;-86
2022/09/03 12:26:42;;;;;;;3.33;0.93;;;10.60;99.90;;;;;;4908502;29;20513;-82
2022/09/03 12:29:23;;;;;;;3.70;1.20;;;10.50;99.90;;;;;;4914290;29;20508;-85
2022/09/03 12:31:55;;;;;;;3.78;1.10;;;10.50;99.90;;;;;;4910929;29;20043;-83
2022/09/03 12:34:24;;;;;;;2.97;1.25;;;10.50;99.90;;;;;;4913743;29;20115;-85
2022/09/03 12:36:53;;;;;;;2.75;1.50;;;10.50;99.90;;;;;;4906128;29;20040;-84
2022/09/03 12:39:29;;;;;;;4.95;1.45;;;10.40;99.90;;;;;;4900221;29;20040;-80
2022/09/03 12:42:03;;;;;;;3.10;1.50;;;10.50;99.90;;;;;;4909195;29;20039;-86
2022/09/03 12:44:41;;;;;;;1.70;1.10;;;10.40;99.90;;;;;;4911295;29;20048;-84
2022/09/03 12:47:17;;;;;;;8.50;2.70;;;10.50;99.90;;;;;;4913502;29;20091;-84
2022/09/03 12:49:45;;;;;;;;;;;10.50;99.90;;;;;;4912569;29;20047;-85
2022/09/03 12:52:28;;;;;;;5.43;2.17;;;10.50;99.90;;;;;;4894805;29;19953;-85
2022/09/03 12:55:28;;;;;;;9.18;3.13;;;10.50;99.90;;;;;;4907414;29;20032;-86
2022/09/03 12:58:04;;;;;;;7.68;3.03;;;10.60;99.90;;;;;;4893426;29;20419;-77
2022/09/03 13:00:35;;;;;;;6.75;1.90;;;10.70;99.90;;;;;;4906280;29;20029;-86
2022/09/03 13:03:02;;;;;;;6.57;3.50;;;10.70;99.90;;;;;;4908195;29;20040;-85
2022/09/03 13:06:02;;;;;;;7.45;3.55;;;10.60;99.90;;;;;;4905981;29;20096;-86
2022/09/03 13:08:40;;;;;;;5.95;2.28;;;10.60;99.90;;;;;;4887242;29;20045;-84
2022/09/03 13:11:08;;;;;;;4.57;1.83;;;10.60;99.90;;;;;;4905484;29;20037;-88
2022/09/03 13:13:38;;;;;;;2.70;1.05;;;10.50;99.90;;;;;;4905810;29;20119;-88
2022/09/03 13:16:47;;;;;;;4.80;2.13;;;10.50;99.90;;;;;;4912437;29;20025;-84
2022/09/03 13:19:21;;;;;;;6.05;3.50;;;10.50;99.90;;;;;;4913896;29;20040;-87
2022/09/03 13:22:19;;;;;;;7.15;2.38;;;10.50;99.90;;;;;;4899141;29;20511;-85
2022/09/03 13:24:55;;;;;;;5.32;2.67;;;10.50;99.90;;;;;;4914438;29;20426;-84
2022/09/03 13:27:44;;;;;;;2.83;1.70;;;10.60;99.90;;;;;;4914607;29;20032;-87
2022/09/03 13:30:19;;;;;;;3.20;1.58;;;10.60;99.90;;;;;;4915302;29;20056;-87